createdAt,value
2018-04-27T00:00:20.861Z,4.90
2018-04-27T00:02:50.967Z,4.60
2018-04-27T00:05:20.311Z,4.33
2018-04-27T00:07:49.712Z,4.37
2018-04-27T00:10:19.019Z,4.03
2018-04-27T00:12:48.354Z,4.80
2018-04-27T00:15:18.453Z,4.73
2018-04-27T00:17:48.097Z,4.77
2018-04-27T00:20:17.414Z,4.67
2018-04-27T00:22:46.743Z,4.27
2018-04-27T00:25:16.059Z,5.03
2018-04-27T00:27:45.397Z,4.57
2018-04-27T00:30:14.749Z,4.30
2018-04-27T00:32:44.086Z,4.30
2018-04-27T00:35:13.427Z,3.93
2018-04-27T00:37:42.762Z,4.70
2018-04-27T00:40:12.105Z,4.17
2018-04-27T00:42:41.469Z,4.53
2018-04-27T00:45:10.884Z,4.37
2018-04-27T00:47:40.253Z,3.83
2018-04-27T00:50:10.297Z,4.70
2018-04-27T00:52:57.392Z,4.37
2018-04-27T00:55:26.749Z,4.50
2018-04-27T00:57:56.064Z,4.00
2018-04-27T01:00:25.417Z,4.57
2018-04-27T01:02:55.530Z,4.13
2018-04-27T01:05:25.626Z,4.50
2018-04-27T01:07:54.942Z,4.20
2018-04-27T01:10:24.299Z,4.27
2018-04-27T01:12:53.623Z,4.37
2018-04-27T01:15:22.931Z,3.83
2018-04-27T01:17:52.277Z,4.23
2018-04-27T01:20:22.399Z,4.13
2018-04-27T01:22:52.515Z,4.20
2018-04-27T01:25:22.601Z,4.13
2018-04-27T01:27:51.944Z,4.00
2018-04-27T01:30:21.280Z,4.53
2018-04-27T01:32:50.603Z,3.67
2018-04-27T01:35:19.956Z,4.07
2018-04-27T01:37:49.307Z,4.70
2018-04-27T01:40:18.719Z,4.10
2018-04-27T01:42:50.044Z,3.70
2018-04-27T01:45:19.371Z,3.63
2018-04-27T01:47:48.732Z,3.53
2018-04-27T01:50:18.077Z,4.30
2018-04-27T01:52:47.419Z,4.20
2018-04-27T01:55:17.519Z,4.20
2018-04-27T01:57:46.861Z,3.53
2018-04-27T02:00:16.204Z,3.53
2018-04-27T02:02:45.531Z,3.77
2018-04-27T02:05:14.912Z,3.30
2018-04-27T02:07:44.246Z,4.20
2018-04-27T02:10:14.350Z,3.23
2018-04-27T02:12:44.443Z,3.17
2018-04-27T02:15:13.768Z,3.47
2018-04-27T02:17:43.052Z,3.90
2018-04-27T02:20:12.359Z,3.30
2018-04-27T02:22:41.660Z,3.23
2018-04-27T02:25:10.991Z,3.00
2018-04-27T02:27:41.063Z,3.10
2018-04-27T02:30:10.369Z,3.10
2018-04-27T02:32:39.686Z,3.77
2018-04-27T02:35:08.984Z,3.00
2018-04-27T02:37:38.281Z,2.60
2018-04-27T02:40:07.580Z,3.57
2018-04-27T02:42:36.882Z,3.03
2018-04-27T02:45:06.212Z,3.10
2018-04-27T02:47:35.515Z,2.80
2018-04-27T02:50:04.814Z,3.13
2018-04-27T02:52:34.116Z,3.30
2018-04-27T02:55:03.440Z,3.67
2018-04-27T02:57:33.508Z,3.20
2018-04-27T03:00:02.789Z,2.63
2018-04-27T03:02:32.134Z,3.23
2018-04-27T03:05:01.433Z,3.47
2018-04-27T03:07:30.767Z,2.80
2018-04-27T03:10:00.829Z,2.70
2018-04-27T03:12:30.183Z,3.10
2018-04-27T03:14:59.463Z,2.93
2018-04-27T03:17:28.751Z,2.63
2018-04-27T03:19:58.064Z,3.30
2018-04-27T03:22:27.356Z,2.63
2018-04-27T03:24:56.687Z,2.60
2018-04-27T03:27:25.982Z,3.07
2018-04-27T03:29:55.290Z,2.87
2018-04-27T03:32:24.617Z,2.57
2018-04-27T03:34:53.896Z,2.90
2018-04-27T03:37:23.980Z,2.93
2018-04-27T03:39:53.330Z,2.33
2018-04-27T03:42:23.401Z,2.93
2018-04-27T03:44:52.701Z,2.77
2018-04-27T03:47:22.006Z,2.70
2018-04-27T03:49:51.296Z,2.73
2018-04-27T03:52:20.614Z,2.60
2018-04-27T03:54:49.916Z,2.50
2018-04-27T03:57:19.245Z,2.70
2018-04-27T04:00:06.200Z,2.33
2018-04-27T04:02:53.161Z,2.40
2018-04-27T04:05:29.083Z,2.03
2018-04-27T04:07:58.386Z,2.63
2018-04-27T04:10:27.683Z,3.87
2018-04-27T04:12:57.003Z,2.67
2018-04-27T04:15:26.588Z,2.50
2018-04-27T04:17:55.881Z,2.83
2018-04-27T04:20:25.194Z,2.90
2018-04-27T04:22:54.497Z,3.00
2018-04-27T04:25:23.786Z,2.43
2018-04-27T04:27:53.111Z,2.97
2018-04-27T04:30:24.195Z,3.07
2018-04-27T04:32:53.522Z,2.53
2018-04-27T04:35:23.601Z,2.90
2018-04-27T04:37:53.118Z,2.57
2018-04-27T04:40:22.454Z,2.93
2018-04-27T04:42:52.529Z,3.27
2018-04-27T04:45:21.836Z,3.40
2018-04-27T04:47:51.181Z,3.53
2018-04-27T04:50:21.225Z,3.50
2018-04-27T04:52:50.529Z,2.93
2018-04-27T04:55:19.889Z,3.43
2018-04-27T04:57:49.181Z,3.57
2018-04-27T05:00:18.490Z,3.27
2018-04-27T05:02:47.872Z,3.33
2018-04-27T05:05:17.909Z,3.53
2018-04-27T05:07:47.212Z,3.23
2018-04-27T05:10:16.532Z,4.00
2018-04-27T05:12:45.826Z,3.50
2018-04-27T05:15:15.906Z,3.17
2018-04-27T05:17:45.198Z,3.43
2018-04-27T05:20:14.280Z,3.00
2018-04-27T05:22:43.574Z,2.97
2018-04-27T05:25:12.876Z,3.33
2018-04-27T05:27:42.190Z,3.60
2018-04-27T05:30:12.275Z,3.13
2018-04-27T05:32:41.577Z,3.20
2018-04-27T05:35:10.878Z,3.33
2018-04-27T05:37:40.935Z,3.03
2018-04-27T05:40:10.235Z,3.47
2018-04-27T05:42:39.565Z,4.20
2018-04-27T05:45:08.865Z,2.77
2018-04-27T05:47:38.178Z,3.30
2018-04-27T05:50:07.508Z,3.17
2018-04-27T05:52:36.823Z,3.20
2018-04-27T05:55:06.878Z,3.27
2018-04-27T05:57:36.166Z,3.60
2018-04-27T06:00:05.469Z,3.37
2018-04-27T06:02:34.790Z,3.23
2018-04-27T06:05:04.152Z,3.10
2018-04-27T06:07:34.201Z,3.00
2018-04-27T06:10:03.621Z,3.50
2018-04-27T06:12:32.823Z,2.80
2018-04-27T06:15:02.125Z,2.87
2018-04-27T06:17:31.428Z,3.10
2018-04-27T06:20:00.723Z,2.87
2018-04-27T06:22:30.022Z,2.60
2018-04-27T06:24:59.338Z,3.70
2018-04-27T06:27:28.648Z,2.40
2018-04-27T06:29:58.652Z,2.63
2018-04-27T06:32:27.985Z,2.63
2018-04-27T06:34:57.294Z,2.40
2018-04-27T06:37:26.646Z,2.80
2018-04-27T06:39:55.965Z,2.27
2018-04-27T06:42:25.251Z,4.07
2018-04-27T06:44:54.562Z,2.50
2018-04-27T06:47:24.041Z,2.27
2018-04-27T06:49:53.362Z,2.33
2018-04-27T06:52:22.797Z,2.00
2018-04-27T06:54:52.819Z,1.40
2018-04-27T06:57:23.443Z,2.37
2018-04-27T06:59:52.775Z,2.00
2018-04-27T07:02:22.858Z,2.20
2018-04-27T07:04:52.167Z,1.73
2018-04-27T07:07:21.483Z,1.70
2018-04-27T07:09:50.806Z,1.73
2018-04-27T07:12:20.935Z,1.90
2018-04-27T07:14:50.234Z,1.80
2018-04-27T07:17:20.351Z,1.90
2018-04-27T07:19:49.645Z,1.40
2018-04-27T07:22:18.970Z,1.60
2018-04-27T07:24:49.078Z,1.83
2018-04-27T07:27:18.380Z,1.53
2018-04-27T07:29:48.439Z,1.63
2018-04-27T07:32:18.356Z,1.60
2018-04-27T07:34:47.676Z,1.23
2018-04-27T07:37:17.003Z,2.03
2018-04-27T07:39:46.388Z,1.87
2018-04-27T07:42:15.606Z,1.27
2018-04-27T07:44:44.946Z,1.10
2018-04-27T07:47:15.011Z,1.47
2018-04-27T07:49:44.352Z,1.73
2018-04-27T07:52:14.418Z,1.10
2018-04-27T07:54:43.724Z,1.33
2018-04-27T07:57:13.046Z,1.10
2018-04-27T07:59:42.347Z,1.20
2018-04-27T08:02:11.655Z,1.30
2018-04-27T08:04:40.992Z,1.10
2018-04-27T08:07:11.107Z,1.23
2018-04-27T08:09:40.431Z,1.50
2018-04-27T08:12:09.828Z,1.40
2018-04-27T08:14:39.072Z,1.03
2018-04-27T08:17:08.399Z,1.23
2018-04-27T08:19:37.700Z,1.20
2018-04-27T08:22:07.020Z,1.20
2018-04-27T08:24:37.123Z,1.20
2018-04-27T08:27:06.422Z,1.10
2018-04-27T08:29:35.761Z,1.30
2018-04-27T08:32:05.822Z,1.40
2018-04-27T08:34:35.163Z,1.57
2018-04-27T08:37:05.249Z,1.47
2018-04-27T08:39:34.589Z,1.30
2018-04-27T08:42:03.935Z,1.07
2018-04-27T08:44:34.100Z,1.43
2018-04-27T08:47:03.965Z,1.30
2018-04-27T08:49:33.283Z,1.30
2018-04-27T08:52:02.617Z,1.07
2018-04-27T08:54:32.473Z,1.57
2018-04-27T08:57:01.789Z,1.30
2018-04-27T08:59:31.117Z,1.23
2018-04-27T09:02:00.466Z,1.20
2018-04-27T09:04:30.557Z,1.90
2018-04-27T09:06:59.884Z,1.10
2018-04-27T09:09:29.971Z,1.30
2018-04-27T09:11:59.279Z,1.47
2018-04-27T09:14:28.582Z,1.33
2018-04-27T09:16:57.929Z,1.10
2018-04-27T09:19:27.989Z,1.40
2018-04-27T09:21:57.318Z,1.40
2018-04-27T09:24:26.646Z,1.10
2018-04-27T09:26:56.817Z,1.23
2018-04-27T09:29:26.058Z,1.43
2018-04-27T09:31:55.372Z,1.30
2018-04-27T09:34:24.776Z,1.27
2018-04-27T09:36:54.854Z,0.93
2018-04-27T09:39:24.174Z,1.13
2018-04-27T09:41:53.488Z,1.20
2018-04-27T09:44:23.100Z,1.53
2018-04-27T09:46:52.417Z,1.10
2018-04-27T09:49:22.498Z,1.23
2018-04-27T09:51:51.812Z,1.37
2018-04-27T09:54:21.118Z,1.10
2018-04-27T09:56:50.434Z,1.23
2018-04-27T09:59:20.523Z,1.20
2018-04-27T10:01:49.851Z,1.00
2018-04-27T10:04:19.927Z,1.30
2018-04-27T10:06:49.226Z,1.10
2018-04-27T10:09:18.576Z,1.43
2018-04-27T10:11:47.889Z,1.00
2018-04-27T10:14:17.965Z,1.20
2018-04-27T10:16:47.313Z,1.10
2018-04-27T10:19:17.376Z,1.17
2018-04-27T10:21:46.697Z,1.10
2018-04-27T10:24:16.007Z,1.30
2018-04-27T10:26:45.329Z,1.00
2018-04-27T10:29:15.398Z,1.10
2018-04-27T10:31:44.727Z,1.00
2018-04-27T10:34:14.030Z,1.50
2018-04-27T10:36:43.330Z,1.10
2018-04-27T10:39:12.664Z,1.20
2018-04-27T10:41:42.725Z,1.00
2018-04-27T10:44:12.021Z,1.20
2018-04-27T10:46:41.338Z,1.20
2018-04-27T10:49:10.654Z,1.20
2018-04-27T10:51:39.951Z,1.40
2018-04-27T10:54:09.659Z,1.20
2018-04-27T10:56:38.945Z,1.10
2018-04-27T10:59:08.265Z,1.03
2018-04-27T11:01:37.588Z,1.10
2018-04-27T11:04:07.549Z,0.90
2018-04-27T11:06:36.866Z,1.20
2018-04-27T11:09:06.185Z,0.93
2018-04-27T11:11:35.577Z,1.30
2018-04-27T11:14:04.821Z,1.50
2018-04-27T11:16:34.120Z,1.43
2018-04-27T11:19:03.436Z,0.80
2018-04-27T11:21:33.521Z,0.80
2018-04-27T11:24:02.934Z,1.30
2018-04-27T11:26:32.935Z,1.03
2018-04-27T11:29:02.259Z,1.10
2018-04-27T11:31:31.575Z,1.00
2018-04-27T11:34:00.869Z,0.90
2018-04-27T11:36:30.181Z,1.20
2018-04-27T11:38:59.503Z,1.07
2018-04-27T11:41:28.939Z,1.17
2018-04-27T11:43:58.243Z,1.20
2018-04-27T11:46:27.569Z,1.10
2018-04-27T11:48:56.865Z,0.90
2018-04-27T11:51:26.188Z,0.80
2018-04-27T11:53:55.491Z,0.80
2018-04-27T11:56:24.822Z,0.90
2018-04-27T11:58:54.896Z,1.10
2018-04-27T12:01:24.206Z,1.00
2018-04-27T12:03:53.516Z,1.00
2018-04-27T12:06:22.823Z,1.23
2018-04-27T12:08:52.138Z,1.10
2018-04-27T12:11:22.220Z,0.87
2018-04-27T12:13:51.541Z,0.90
2018-04-27T12:16:20.835Z,1.10
2018-04-27T12:18:50.134Z,1.40
2018-04-27T12:21:19.464Z,1.10
2018-04-27T12:23:48.758Z,1.00
2018-04-27T12:26:18.089Z,1.10
2018-04-27T12:28:48.174Z,1.00
2018-04-27T12:31:17.621Z,1.00
2018-04-27T12:33:47.568Z,1.03
2018-04-27T12:36:16.875Z,0.90
2018-04-27T12:38:46.244Z,0.93
2018-04-27T12:41:15.520Z,1.30
2018-04-27T12:43:45.591Z,1.03
2018-04-27T12:46:14.890Z,1.10
2018-04-27T12:48:44.245Z,1.03
2018-04-27T12:51:13.572Z,0.80
2018-04-27T12:53:43.641Z,0.90
2018-04-27T12:56:12.962Z,0.93
2018-04-27T12:58:42.262Z,1.23
2018-04-27T13:01:11.562Z,1.10
2018-04-27T13:03:40.884Z,1.13
2018-04-27T13:06:10.942Z,1.00
2018-04-27T13:08:40.276Z,1.00
2018-04-27T13:11:09.575Z,1.10
2018-04-27T13:13:39.885Z,1.00
2018-04-27T13:16:09.203Z,0.80
2018-04-27T13:18:38.543Z,1.20
2018-04-27T13:21:07.859Z,1.00
2018-04-27T13:23:37.159Z,1.00
2018-04-27T13:26:06.463Z,0.93
2018-04-27T13:28:35.782Z,1.27
2018-04-27T13:31:05.083Z,1.00
2018-04-27T13:33:34.398Z,0.90
2018-04-27T13:36:03.736Z,0.83
2018-04-27T13:38:33.053Z,1.07
2018-04-27T13:41:02.368Z,1.00
2018-04-27T13:43:32.426Z,0.97
2018-04-27T13:46:01.741Z,1.10
2018-04-27T13:48:31.056Z,0.73
2018-04-27T13:51:00.370Z,0.90
2018-04-27T13:53:29.702Z,1.03
2018-04-27T13:55:59.304Z,1.20
2018-04-27T13:58:29.358Z,1.10
2018-04-27T14:00:58.698Z,0.90
2018-04-27T14:03:28.010Z,1.17
2018-04-27T14:05:57.314Z,0.80
2018-04-27T14:08:26.629Z,0.90
2018-04-27T14:10:55.947Z,1.00
2018-04-27T14:13:26.007Z,1.17
2018-04-27T14:15:56.092Z,0.90
2018-04-27T14:18:25.421Z,1.10
2018-04-27T14:20:54.729Z,1.20
2018-04-27T14:23:25.601Z,1.50
2018-04-27T14:25:54.890Z,0.90
2018-04-27T14:28:24.181Z,1.00
2018-04-27T14:30:53.524Z,1.10
2018-04-27T14:33:22.810Z,1.23
2018-04-27T14:35:52.149Z,1.23
2018-04-27T14:38:22.015Z,1.30
2018-04-27T14:40:51.326Z,1.27
2018-04-27T14:43:20.647Z,0.83
2018-04-27T14:45:50.729Z,1.10
2018-04-27T14:48:20.061Z,1.03
2018-04-27T14:50:49.347Z,1.20
2018-04-27T14:53:18.677Z,1.10
2018-04-27T14:55:47.994Z,1.00
2018-04-27T14:58:17.295Z,1.30
2018-04-27T15:00:47.379Z,1.20
2018-04-27T15:03:21.978Z,1.00
2018-04-27T15:05:56.788Z,1.33
2018-04-27T15:08:31.315Z,1.23
2018-04-27T15:11:05.957Z,1.30
2018-04-27T15:13:40.643Z,1.60
2018-04-27T15:16:15.210Z,1.30
2018-04-27T15:18:49.877Z,1.80
2018-04-27T15:21:24.461Z,1.40
2018-04-27T15:23:59.680Z,1.80
2018-04-27T15:26:34.763Z,2.00
2018-04-27T15:29:09.394Z,1.30
2018-04-27T15:31:44.007Z,1.33
2018-04-27T15:34:18.542Z,1.40
2018-04-27T15:36:52.949Z,1.10
2018-04-27T15:39:27.379Z,1.60
2018-04-27T15:42:01.998Z,1.20
2018-04-27T15:44:36.746Z,1.43
2018-04-27T15:47:11.280Z,1.40
2018-04-27T15:49:45.977Z,1.90
2018-04-27T15:52:20.634Z,1.50
2018-04-27T15:54:55.222Z,1.67
2018-04-27T15:57:29.915Z,1.10
2018-04-27T16:00:04.556Z,1.40
2018-04-27T16:02:38.982Z,1.30
2018-04-27T16:05:13.554Z,1.17
2018-04-27T16:07:47.971Z,1.40
2018-04-27T16:10:22.622Z,1.40
2018-04-27T16:15:55.306Z,1.30
2018-04-27T16:18:29.862Z,1.23
2018-04-27T16:21:04.537Z,1.40
2018-04-27T16:23:39.205Z,1.30
2018-04-27T16:26:14.518Z,1.33
2018-04-27T16:28:49.134Z,1.53
2018-04-27T16:31:23.792Z,1.50
2018-04-27T16:33:58.410Z,1.43
2018-04-27T16:36:33.783Z,1.40
2018-04-27T16:39:08.274Z,1.20
2018-04-27T16:41:42.751Z,1.20
2018-04-27T16:44:17.410Z,1.47
2018-04-27T16:46:52.046Z,1.20
2018-04-27T16:49:27.229Z,1.40
2018-04-27T16:52:01.704Z,1.50
2018-04-27T16:54:36.397Z,1.33
2018-04-27T16:57:10.810Z,1.40
2018-04-27T16:59:45.363Z,1.50
2018-04-27T17:02:20.130Z,1.60
2018-04-27T17:04:55.477Z,1.73
2018-04-27T17:07:30.817Z,1.80
2018-04-27T17:10:05.350Z,1.70
2018-04-27T17:12:39.934Z,1.30
2018-04-27T17:15:14.497Z,1.57
2018-04-27T17:17:49.938Z,1.70
2018-04-27T17:20:24.565Z,1.77
2018-04-27T17:22:59.966Z,1.60
2018-04-27T17:25:34.608Z,1.50
2018-04-27T17:28:09.270Z,5.23
2018-04-27T17:30:43.857Z,1.60
2018-04-27T17:33:18.794Z,1.33
2018-04-27T17:35:53.307Z,1.47
2018-04-27T17:38:28.487Z,1.20
2018-04-27T17:41:03.028Z,1.07
2018-04-27T17:43:37.701Z,1.67
2018-04-27T17:46:12.268Z,1.50
2018-04-27T17:48:46.957Z,1.70
2018-04-27T17:51:21.641Z,1.60
2018-04-27T17:53:56.326Z,1.17
2018-04-27T17:56:30.266Z,1.33
2018-04-27T17:59:04.824Z,1.40
2018-04-27T18:01:39.395Z,1.43
2018-04-27T18:04:14.063Z,1.27
2018-04-27T18:06:49.300Z,1.30
2018-04-27T18:09:23.866Z,1.50
2018-04-27T18:11:59.107Z,1.03
2018-04-27T18:14:33.607Z,1.00
2018-04-27T18:17:08.187Z,1.40
2018-04-27T18:19:42.865Z,1.70
2018-04-27T18:22:17.454Z,3.43
2018-04-27T18:24:52.114Z,2.20
2018-04-27T18:27:26.506Z,1.50
2018-04-27T18:30:01.139Z,1.80
2018-04-27T18:32:35.812Z,1.40
2018-04-27T18:35:10.191Z,1.13
2018-04-27T18:37:45.531Z,1.20
2018-04-27T18:40:20.131Z,1.47
2018-04-27T18:42:54.780Z,1.47
2018-04-27T18:45:29.139Z,1.37
2018-04-27T18:48:09.420Z,1.50
2018-04-27T18:50:44.700Z,1.30
2018-04-27T18:53:19.145Z,1.53
2018-04-27T18:55:53.683Z,1.30
2018-04-27T18:58:28.343Z,1.57
2018-04-27T19:01:02.876Z,1.77
2018-04-27T19:03:37.564Z,1.20
2018-04-27T19:06:12.114Z,1.27
2018-04-27T19:08:46.639Z,1.60
2018-04-27T19:11:22.028Z,1.50
2018-04-27T19:13:56.498Z,1.33
2018-04-27T19:16:25.512Z,1.70
2018-04-27T19:18:56.802Z,1.50
2018-04-27T19:21:26.114Z,1.50
2018-04-27T19:23:57.364Z,1.40
2018-04-27T19:26:27.613Z,1.40
2018-04-27T19:28:57.708Z,1.33
2018-04-27T19:31:26.999Z,1.70
2018-04-27T19:33:57.177Z,1.67
2018-04-27T19:36:26.489Z,1.67
2018-04-27T19:38:55.814Z,1.60
2018-04-27T19:41:25.122Z,1.70
2018-04-27T19:43:54.438Z,1.80
2018-04-27T19:46:24.297Z,1.90
2018-04-27T19:48:53.599Z,1.90
2018-04-27T19:51:22.893Z,1.90
2018-04-27T19:53:52.222Z,2.03
2018-04-27T19:56:21.509Z,2.63
2018-04-27T19:58:50.940Z,1.93
2018-04-27T20:01:20.271Z,2.50
2018-04-27T20:03:49.566Z,2.00
2018-04-27T20:06:18.867Z,2.00
2018-04-27T20:08:48.202Z,2.00
2018-04-27T20:11:18.387Z,1.87
2018-04-27T20:13:47.661Z,2.33
2018-04-27T20:16:30.511Z,2.23
2018-04-27T20:18:59.848Z,2.30
2018-04-27T20:21:29.928Z,2.57
2018-04-27T20:24:04.010Z,2.50
2018-04-27T20:26:33.341Z,2.47
2018-04-27T20:29:03.198Z,2.33
2018-04-27T20:31:32.517Z,2.67
2018-04-27T20:34:01.807Z,3.17
2018-04-27T20:36:31.923Z,2.47
2018-04-27T20:39:02.031Z,2.63
2018-04-27T20:41:31.353Z,2.30
2018-04-27T20:44:01.488Z,2.83
2018-04-27T20:46:31.498Z,2.90
2018-04-27T20:49:01.571Z,2.43
2018-04-27T20:51:30.902Z,2.53
2018-04-27T20:54:01.786Z,2.90
2018-04-27T20:56:47.592Z,2.50
2018-04-27T20:59:16.899Z,2.60
2018-04-27T21:01:46.253Z,3.00
2018-04-27T21:04:16.324Z,2.90
2018-04-27T21:06:45.699Z,2.80
2018-04-27T21:09:14.953Z,2.93
2018-04-27T21:11:45.556Z,2.50
2018-04-27T21:14:14.988Z,2.50
2018-04-27T21:16:44.201Z,2.53
2018-04-27T21:19:13.496Z,2.50
2018-04-27T21:21:43.591Z,2.57
2018-04-27T21:24:12.939Z,3.17
2018-04-27T21:26:43.022Z,3.03
2018-04-27T21:29:27.107Z,2.73
2018-04-27T21:31:57.178Z,2.40
2018-04-27T21:34:26.505Z,2.93
2018-04-27T21:36:56.467Z,2.80
2018-04-27T21:39:26.662Z,3.00
2018-04-27T21:42:00.622Z,2.10
2018-04-27T21:44:31.478Z,2.70
2018-04-27T21:47:26.179Z,2.70
2018-04-27T21:49:55.499Z,2.70
2018-04-27T21:52:27.673Z,3.07
2018-04-27T21:54:57.765Z,2.90
2018-04-27T21:58:06.597Z,3.07
2018-04-27T22:00:35.919Z,3.20
2018-04-27T22:03:11.791Z,5.47
2018-04-27T22:05:50.166Z,4.50
2018-04-27T22:11:47.383Z,3.63
2018-04-27T22:14:27.053Z,2.67
2018-04-27T22:20:08.603Z,2.50
2018-04-27T22:22:38.913Z,2.30
2018-04-27T22:25:15.974Z,2.70
2018-04-27T22:27:46.681Z,2.30
2018-04-27T22:30:22.046Z,3.27
2018-04-27T22:32:51.383Z,2.73
2018-04-27T22:35:36.440Z,2.47
2018-04-27T22:38:05.758Z,2.17
2018-04-27T22:40:39.773Z,2.03
2018-04-27T22:43:23.971Z,1.87
2018-04-27T22:46:03.457Z,1.83
2018-04-27T22:48:41.604Z,1.97
2018-04-27T22:51:30.759Z,2.00
2018-04-27T22:54:02.433Z,2.43
2018-04-27T22:59:32.424Z,2.40
2018-04-27T23:02:21.214Z,2.13
2018-04-27T23:04:58.322Z,1.93
2018-04-27T23:07:37.218Z,2.03
2018-04-27T23:10:07.287Z,1.87
2018-04-27T23:12:52.116Z,2.17
2018-04-27T23:15:21.449Z,1.80
2018-04-27T23:17:51.518Z,2.00
2018-04-27T23:20:24.579Z,2.23
2018-04-27T23:22:59.718Z,2.10
2018-04-27T23:25:29.059Z,1.90
2018-04-27T23:27:59.063Z,1.77
2018-04-27T23:30:31.968Z,1.80
2018-04-27T23:33:01.266Z,1.80
2018-04-27T23:35:30.588Z,1.70
2018-04-27T23:37:59.919Z,1.87
2018-04-27T23:40:30.025Z,2.17
2018-04-27T23:42:59.325Z,1.87
2018-04-27T23:45:28.643Z,1.93
2018-04-27T23:47:58.707Z,1.60
2018-04-27T23:50:28.035Z,1.70
2018-04-27T23:52:57.353Z,1.57
2018-04-27T23:55:26.668Z,1.70
2018-04-27T23:57:56.780Z,1.70
